sensor_id;sensor_type;location;lat;lon;timestamp;P1;durP1;ratioP1;P2;durP2;ratioP2
15482;SDS011;7843;50.330;7.312;2023-06-14T00:02:26;2.03;;;1.25;;
15482;SDS011;7843;50.330;7.312;2023-06-14T00:04:52;2.58;;;1.58;;
15482;SDS011;7843;50.330;7.312;2023-06-14T00:07:21;2.58;;;1.50;;
15482;SDS011;7843;50.330;7.312;2023-06-14T00:10:04;2.22;;;1.65;;
15482;SDS011;7843;50.330;7.312;2023-06-14T00:12:31;1.45;;;1.30;;
15482;SDS011;7843;50.330;7.312;2023-06-14T00:14:58;5.50;;;1.60;;
15482;SDS011;7843;50.330;7.312;2023-06-14T00:17:25;3.20;;;1.60;;
15482;SDS011;7843;50.330;7.312;2023-06-14T00:19:56;2.00;;;1.50;;
15482;SDS011;7843;50.330;7.312;2023-06-14T00:22:24;1.98;;;1.48;;
15482;SDS011;7843;50.330;7.312;2023-06-14T00:24:51;3.20;;;1.70;;
15482;SDS011;7843;50.330;7.312;2023-06-14T00:27:19;2.88;;;1.60;;
15482;SDS011;7843;50.330;7.312;2023-06-14T00:29:46;2.70;;;2.10;;
15482;SDS011;7843;50.330;7.312;2023-06-14T00:32:12;2.50;;;1.70;;
15482;SDS011;7843;50.330;7.312;2023-06-14T00:34:39;2.65;;;1.67;;
15482;SDS011;7843;50.330;7.312;2023-06-14T00:37:06;3.80;;;2.00;;
15482;SDS011;7843;50.330;7.312;2023-06-14T00:39:33;5.80;;;1.95;;
15482;SDS011;7843;50.330;7.312;2023-06-14T00:42:00;2.28;;;1.60;;
15482;SDS011;7843;50.330;7.312;2023-06-14T00:44:27;2.22;;;1.58;;
15482;SDS011;7843;50.330;7.312;2023-06-14T00:46:54;1.38;;;1.27;;
15482;SDS011;7843;50.330;7.312;2023-06-14T00:49:21;2.72;;;1.90;;
15482;SDS011;7843;50.330;7.312;2023-06-14T00:51:48;1.83;;;1.35;;
15482;SDS011;7843;50.330;7.312;2023-06-14T00:54:15;1.88;;;1.55;;
15482;SDS011;7843;50.330;7.312;2023-06-14T00:56:42;1.88;;;1.48;;
15482;SDS011;7843;50.330;7.312;2023-06-14T00:59:10;2.33;;;1.65;;
15482;SDS011;7843;50.330;7.312;2023-06-14T01:01:37;2.53;;;1.35;;
15482;SDS011;7843;50.330;7.312;2023-06-14T01:04:04;3.30;;;1.60;;
15482;SDS011;7843;50.330;7.312;2023-06-14T01:06:45;3.38;;;1.60;;
15482;SDS011;7843;50.330;7.312;2023-06-14T01:09:27;1.30;;;1.20;;
15482;SDS011;7843;50.330;7.312;2023-06-14T01:12:17;2.47;;;1.92;;
15482;SDS011;7843;50.330;7.312;2023-06-14T01:15:09;3.47;;;1.75;;
15482;SDS011;7843;50.330;7.312;2023-06-14T01:17:36;3.40;;;1.60;;
15482;SDS011;7843;50.330;7.312;2023-06-14T01:20:10;1.67;;;1.58;;
15482;SDS011;7843;50.330;7.312;2023-06-14T01:22:53;2.38;;;1.48;;
15482;SDS011;7843;50.330;7.312;2023-06-14T01:25:20;1.35;;;0.95;;
15482;SDS011;7843;50.330;7.312;2023-06-14T01:30:24;2.23;;;1.43;;
15482;SDS011;7843;50.330;7.312;2023-06-14T01:32:53;1.80;;;1.27;;
15482;SDS011;7843;50.330;7.312;2023-06-14T01:35:22;2.95;;;1.65;;
15482;SDS011;7843;50.330;7.312;2023-06-14T01:37:49;3.70;;;1.50;;
15482;SDS011;7843;50.330;7.312;2023-06-14T01:40:16;3.30;;;2.10;;
15482;SDS011;7843;50.330;7.312;2023-06-14T01:42:46;3.42;;;2.03;;
15482;SDS011;7843;50.330;7.312;2023-06-14T01:45:15;3.20;;;1.80;;
15482;SDS011;7843;50.330;7.312;2023-06-14T01:47:43;1.80;;;1.63;;
15482;SDS011;7843;50.330;7.312;2023-06-14T01:50:11;2.58;;;1.50;;
15482;SDS011;7843;50.330;7.312;2023-06-14T01:52:39;1.52;;;1.38;;
15482;SDS011;7843;50.330;7.312;2023-06-14T01:55:06;2.03;;;1.80;;
15482;SDS011;7843;50.330;7.312;2023-06-14T01:57:34;2.30;;;1.70;;
15482;SDS011;7843;50.330;7.312;2023-06-14T02:00:01;3.27;;;1.33;;
15482;SDS011;7843;50.330;7.312;2023-06-14T02:02:29;3.08;;;1.88;;
15482;SDS011;7843;50.330;7.312;2023-06-14T02:04:56;1.80;;;1.30;;
15482;SDS011;7843;50.330;7.312;2023-06-14T02:07:23;2.00;;;1.70;;
15482;SDS011;7843;50.330;7.312;2023-06-14T02:09:50;3.83;;;1.27;;
15482;SDS011;7843;50.330;7.312;2023-06-14T02:12:17;1.70;;;1.60;;
15482;SDS011;7843;50.330;7.312;2023-06-14T02:14:44;1.48;;;1.33;;
15482;SDS011;7843;50.330;7.312;2023-06-14T02:17:11;2.35;;;1.73;;
15482;SDS011;7843;50.330;7.312;2023-06-14T02:19:37;2.80;;;1.60;;
15482;SDS011;7843;50.330;7.312;2023-06-14T02:22:04;2.70;;;1.88;;
15482;SDS011;7843;50.330;7.312;2023-06-14T02:24:31;1.33;;;1.15;;
15482;SDS011;7843;50.330;7.312;2023-06-14T02:26:58;2.22;;;1.45;;
15482;SDS011;7843;50.330;7.312;2023-06-14T02:29:25;1.83;;;1.35;;
15482;SDS011;7843;50.330;7.312;2023-06-14T02:31:51;3.83;;;1.90;;
15482;SDS011;7843;50.330;7.312;2023-06-14T02:34:18;1.45;;;1.35;;
15482;SDS011;7843;50.330;7.312;2023-06-14T02:36:46;2.13;;;1.63;;
15482;SDS011;7843;50.330;7.312;2023-06-14T02:39:14;1.40;;;1.23;;
15482;SDS011;7843;50.330;7.312;2023-06-14T02:41:40;2.03;;;1.63;;
15482;SDS011;7843;50.330;7.312;2023-06-14T02:44:07;2.40;;;1.67;;
15482;SDS011;7843;50.330;7.312;2023-06-14T02:46:37;4.15;;;1.83;;
15482;SDS011;7843;50.330;7.312;2023-06-14T02:49:04;2.55;;;1.60;;
15482;SDS011;7843;50.330;7.312;2023-06-14T02:51:31;2.65;;;1.77;;
15482;SDS011;7843;50.330;7.312;2023-06-14T02:53:58;2.43;;;1.63;;
15482;SDS011;7843;50.330;7.312;2023-06-14T02:56:24;2.38;;;1.58;;
15482;SDS011;7843;50.330;7.312;2023-06-14T02:58:52;2.28;;;1.95;;
15482;SDS011;7843;50.330;7.312;2023-06-14T03:01:19;5.68;;;2.10;;
15482;SDS011;7843;50.330;7.312;2023-06-14T03:03:46;3.90;;;1.88;;
15482;SDS011;7843;50.330;7.312;2023-06-14T03:06:13;2.67;;;2.00;;
15482;SDS011;7843;50.330;7.312;2023-06-14T03:08:42;2.55;;;1.88;;
15482;SDS011;7843;50.330;7.312;2023-06-14T03:11:10;4.68;;;2.47;;
15482;SDS011;7843;50.330;7.312;2023-06-14T03:13:36;4.23;;;1.90;;
15482;SDS011;7843;50.330;7.312;2023-06-14T03:16:04;2.58;;;1.83;;
15482;SDS011;7843;50.330;7.312;2023-06-14T03:18:31;1.70;;;1.50;;
15482;SDS011;7843;50.330;7.312;2023-06-14T03:21:01;4.05;;;1.98;;
15482;SDS011;7843;50.330;7.312;2023-06-14T03:23:29;3.70;;;2.13;;
15482;SDS011;7843;50.330;7.312;2023-06-14T03:25:56;2.63;;;1.17;;
15482;SDS011;7843;50.330;7.312;2023-06-14T03:28:23;2.38;;;1.63;;
15482;SDS011;7843;50.330;7.312;2023-06-14T03:30:50;10.70;;;2.08;;
15482;SDS011;7843;50.330;7.312;2023-06-14T03:33:17;1.92;;;1.45;;
15482;SDS011;7843;50.330;7.312;2023-06-14T03:35:44;1.87;;;1.53;;
15482;SDS011;7843;50.330;7.312;2023-06-14T03:38:11;2.50;;;1.75;;
15482;SDS011;7843;50.330;7.312;2023-06-14T03:40:37;4.70;;;2.33;;
15482;SDS011;7843;50.330;7.312;2023-06-14T03:43:04;4.85;;;1.80;;
15482;SDS011;7843;50.330;7.312;2023-06-14T03:45:31;2.40;;;1.60;;
15482;SDS011;7843;50.330;7.312;2023-06-14T03:47:57;2.63;;;1.67;;
15482;SDS011;7843;50.330;7.312;2023-06-14T03:50:26;2.53;;;1.67;;
15482;SDS011;7843;50.330;7.312;2023-06-14T03:52:53;2.47;;;1.65;;
15482;SDS011;7843;50.330;7.312;2023-06-14T03:55:20;1.88;;;1.63;;
15482;SDS011;7843;50.330;7.312;2023-06-14T03:58:07;2.92;;;1.42;;
15482;SDS011;7843;50.330;7.312;2023-06-14T04:00:33;2.78;;;1.80;;
15482;SDS011;7843;50.330;7.312;2023-06-14T04:03:02;3.13;;;2.03;;
15482;SDS011;7843;50.330;7.312;2023-06-14T04:05:30;2.40;;;1.42;;
15482;SDS011;7843;50.330;7.312;2023-06-14T04:07:57;1.58;;;1.30;;
15482;SDS011;7843;50.330;7.312;2023-06-14T04:10:26;2.47;;;1.70;;
15482;SDS011;7843;50.330;7.312;2023-06-14T04:12:54;3.15;;;1.60;;
15482;SDS011;7843;50.330;7.312;2023-06-14T04:15:20;1.65;;;1.30;;
15482;SDS011;7843;50.330;7.312;2023-06-14T04:17:47;3.42;;;1.65;;
15482;SDS011;7843;50.330;7.312;2023-06-14T04:20:14;3.17;;;1.80;;
15482;SDS011;7843;50.330;7.312;2023-06-14T04:22:41;1.45;;;1.27;;
15482;SDS011;7843;50.330;7.312;2023-06-14T04:25:09;2.63;;;1.70;;
15482;SDS011;7843;50.330;7.312;2023-06-14T04:27:36;2.50;;;1.60;;
15482;SDS011;7843;50.330;7.312;2023-06-14T04:30:04;3.00;;;1.63;;
15482;SDS011;7843;50.330;7.312;2023-06-14T04:32:31;2.70;;;1.85;;
15482;SDS011;7843;50.330;7.312;2023-06-14T04:34:59;3.50;;;2.08;;
15482;SDS011;7843;50.330;7.312;2023-06-14T04:37:29;4.93;;;2.13;;
15482;SDS011;7843;50.330;7.312;2023-06-14T04:39:56;3.90;;;1.88;;
15482;SDS011;7843;50.330;7.312;2023-06-14T04:42:24;3.33;;;2.13;;
15482;SDS011;7843;50.330;7.312;2023-06-14T04:44:57;5.05;;;2.35;;
15482;SDS011;7843;50.330;7.312;2023-06-14T04:47:24;4.50;;;2.33;;
15482;SDS011;7843;50.330;7.312;2023-06-14T04:49:58;3.97;;;1.90;;
15482;SDS011;7843;50.330;7.312;2023-06-14T04:52:26;3.80;;;2.22;;
15482;SDS011;7843;50.330;7.312;2023-06-14T04:54:53;2.35;;;1.67;;
15482;SDS011;7843;50.330;7.312;2023-06-14T04:57:20;2.88;;;1.80;;
15482;SDS011;7843;50.330;7.312;2023-06-14T04:59:48;2.22;;;1.75;;
15482;SDS011;7843;50.330;7.312;2023-06-14T05:02:24;2.60;;;1.75;;
15482;SDS011;7843;50.330;7.312;2023-06-14T05:04:51;2.38;;;1.88;;
15482;SDS011;7843;50.330;7.312;2023-06-14T05:07:19;6.25;;;1.45;;
15482;SDS011;7843;50.330;7.312;2023-06-14T05:09:46;3.97;;;2.05;;
15482;SDS011;7843;50.330;7.312;2023-06-14T05:12:13;2.67;;;2.17;;
15482;SDS011;7843;50.330;7.312;2023-06-14T05:14:40;2.07;;;1.70;;
15482;SDS011;7843;50.330;7.312;2023-06-14T05:17:07;3.23;;;2.00;;
15482;SDS011;7843;50.330;7.312;2023-06-14T05:19:34;3.20;;;1.85;;
15482;SDS011;7843;50.330;7.312;2023-06-14T05:22:01;2.90;;;1.65;;
15482;SDS011;7843;50.330;7.312;2023-06-14T05:24:28;2.03;;;1.23;;
15482;SDS011;7843;50.330;7.312;2023-06-14T05:26:56;2.22;;;1.50;;
15482;SDS011;7843;50.330;7.312;2023-06-14T05:29:23;2.57;;;1.40;;
15482;SDS011;7843;50.330;7.312;2023-06-14T05:31:50;2.85;;;1.23;;
15482;SDS011;7843;50.330;7.312;2023-06-14T05:34:17;2.92;;;1.20;;
15482;SDS011;7843;50.330;7.312;2023-06-14T05:36:43;2.33;;;1.67;;
15482;SDS011;7843;50.330;7.312;2023-06-14T05:39:10;4.28;;;1.23;;
15482;SDS011;7843;50.330;7.312;2023-06-14T05:41:37;1.75;;;1.20;;
15482;SDS011;7843;50.330;7.312;2023-06-14T05:44:03;4.63;;;1.40;;
15482;SDS011;7843;50.330;7.312;2023-06-14T05:46:30;3.20;;;1.50;;
15482;SDS011;7843;50.330;7.312;2023-06-14T05:48:57;2.45;;;1.30;;
15482;SDS011;7843;50.330;7.312;2023-06-14T05:51:24;4.00;;;1.42;;
15482;SDS011;7843;50.330;7.312;2023-06-14T05:53:54;1.60;;;1.35;;
15482;SDS011;7843;50.330;7.312;2023-06-14T05:56:20;2.35;;;1.23;;
15482;SDS011;7843;50.330;7.312;2023-06-14T05:58:47;1.73;;;1.20;;
15482;SDS011;7843;50.330;7.312;2023-06-14T06:01:14;3.25;;;1.50;;
15482;SDS011;7843;50.330;7.312;2023-06-14T06:03:41;2.33;;;1.63;;
15482;SDS011;7843;50.330;7.312;2023-06-14T06:06:12;2.03;;;1.53;;
15482;SDS011;7843;50.330;7.312;2023-06-14T06:08:39;2.22;;;1.20;;
15482;SDS011;7843;50.330;7.312;2023-06-14T06:11:06;3.00;;;1.20;;
15482;SDS011;7843;50.330;7.312;2023-06-14T06:13:33;2.28;;;1.48;;
15482;SDS011;7843;50.330;7.312;2023-06-14T06:16:01;2.53;;;1.27;;
15482;SDS011;7843;50.330;7.312;2023-06-14T06:18:29;2.90;;;1.37;;
15482;SDS011;7843;50.330;7.312;2023-06-14T06:20:56;5.05;;;1.40;;
15482;SDS011;7843;50.330;7.312;2023-06-14T06:23:22;2.28;;;1.58;;
15482;SDS011;7843;50.330;7.312;2023-06-14T06:25:49;2.50;;;1.55;;
15482;SDS011;7843;50.330;7.312;2023-06-14T06:28:16;1.85;;;1.52;;
15482;SDS011;7843;50.330;7.312;2023-06-14T06:30:43;2.08;;;1.35;;
15482;SDS011;7843;50.330;7.312;2023-06-14T06:33:10;1.75;;;1.30;;
15482;SDS011;7843;50.330;7.312;2023-06-14T06:35:37;2.45;;;1.30;;
15482;SDS011;7843;50.330;7.312;2023-06-14T06:38:04;1.67;;;1.27;;
15482;SDS011;7843;50.330;7.312;2023-06-14T06:40:30;4.68;;;2.00;;
15482;SDS011;7843;50.330;7.312;2023-06-14T06:42:57;2.65;;;1.60;;
15482;SDS011;7843;50.330;7.312;2023-06-14T06:45:24;3.08;;;1.48;;
15482;SDS011;7843;50.330;7.312;2023-06-14T06:47:51;8.63;;;1.52;;
15482;SDS011;7843;50.330;7.312;2023-06-14T06:50:18;1.63;;;1.05;;
15482;SDS011;7843;50.330;7.312;2023-06-14T06:52:46;2.00;;;1.33;;
15482;SDS011;7843;50.330;7.312;2023-06-14T06:55:12;3.50;;;1.52;;
15482;SDS011;7843;50.330;7.312;2023-06-14T06:57:40;3.40;;;1.20;;
15482;SDS011;7843;50.330;7.312;2023-06-14T07:00:06;2.55;;;1.02;;
15482;SDS011;7843;50.330;7.312;2023-06-14T07:02:35;6.00;;;1.60;;
15482;SDS011;7843;50.330;7.312;2023-06-14T07:05:02;2.58;;;1.17;;
15482;SDS011;7843;50.330;7.312;2023-06-14T07:07:30;1.90;;;1.13;;
15482;SDS011;7843;50.330;7.312;2023-06-14T07:09:57;2.05;;;1.27;;
15482;SDS011;7843;50.330;7.312;2023-06-14T07:12:24;3.90;;;1.17;;
15482;SDS011;7843;50.330;7.312;2023-06-14T07:14:51;3.30;;;0.93;;
15482;SDS011;7843;50.330;7.312;2023-06-14T07:17:17;7.50;;;1.30;;
15482;SDS011;7843;50.330;7.312;2023-06-14T07:19:44;2.83;;;1.20;;
15482;SDS011;7843;50.330;7.312;2023-06-14T07:22:11;2.97;;;1.20;;
15482;SDS011;7843;50.330;7.312;2023-06-14T07:24:38;2.58;;;1.48;;
15482;SDS011;7843;50.330;7.312;2023-06-14T07:27:06;2.78;;;1.00;;
15482;SDS011;7843;50.330;7.312;2023-06-14T07:29:33;4.15;;;1.13;;
15482;SDS011;7843;50.330;7.312;2023-06-14T07:32:00;2.28;;;1.40;;
15482;SDS011;7843;50.330;7.312;2023-06-14T07:34:27;0.68;;;0.60;;
15482;SDS011;7843;50.330;7.312;2023-06-14T07:36:54;1.63;;;0.90;;
15482;SDS011;7843;50.330;7.312;2023-06-14T07:39:21;1.30;;;0.80;;
15482;SDS011;7843;50.330;7.312;2023-06-14T07:41:48;1.77;;;1.10;;
15482;SDS011;7843;50.330;7.312;2023-06-14T07:44:15;1.00;;;0.85;;
15482;SDS011;7843;50.330;7.312;2023-06-14T07:46:42;0.70;;;0.57;;
15482;SDS011;7843;50.330;7.312;2023-06-14T07:49:09;1.20;;;1.00;;
15482;SDS011;7843;50.330;7.312;2023-06-14T07:51:36;3.88;;;0.82;;
15482;SDS011;7843;50.330;7.312;2023-06-14T07:54:04;1.60;;;0.70;;
15482;SDS011;7843;50.330;7.312;2023-06-14T07:56:33;1.20;;;0.80;;
15482;SDS011;7843;50.330;7.312;2023-06-14T07:59:01;5.75;;;0.93;;
15482;SDS011;7843;50.330;7.312;2023-06-14T08:01:28;2.60;;;1.00;;
15482;SDS011;7843;50.330;7.312;2023-06-14T08:03:55;1.60;;;0.75;;
15482;SDS011;7843;50.330;7.312;2023-06-14T08:06:22;0.90;;;0.73;;
15482;SDS011;7843;50.330;7.312;2023-06-14T08:08:48;0.70;;;0.65;;
15482;SDS011;7843;50.330;7.312;2023-06-14T08:11:15;3.70;;;0.90;;
15482;SDS011;7843;50.330;7.312;2023-06-14T08:13:42;2.10;;;0.97;;
15482;SDS011;7843;50.330;7.312;2023-06-14T08:16:09;1.50;;;1.10;;
15482;SDS011;7843;50.330;7.312;2023-06-14T08:18:36;0.80;;;0.60;;
15482;SDS011;7843;50.330;7.312;2023-06-14T08:21:02;1.10;;;0.60;;
15482;SDS011;7843;50.330;7.312;2023-06-14T08:23:30;1.33;;;0.80;;
15482;SDS011;7843;50.330;7.312;2023-06-14T08:25:56;1.47;;;0.97;;
15482;SDS011;7843;50.330;7.312;2023-06-14T08:28:24;2.05;;;1.20;;
15482;SDS011;7843;50.330;7.312;2023-06-14T08:30:50;7.13;;;0.70;;
15482;SDS011;7843;50.330;7.312;2023-06-14T08:33:17;1.85;;;0.90;;
15482;SDS011;7843;50.330;7.312;2023-06-14T08:35:44;0.73;;;0.53;;
15482;SDS011;7843;50.330;7.312;2023-06-14T08:38:11;0.95;;;0.50;;
15482;SDS011;7843;50.330;7.312;2023-06-14T08:40:38;2.08;;;0.80;;
15482;SDS011;7843;50.330;7.312;2023-06-14T08:43:06;0.63;;;0.57;;
15482;SDS011;7843;50.330;7.312;2023-06-14T08:45:33;1.20;;;0.82;;
15482;SDS011;7843;50.330;7.312;2023-06-14T08:48:00;1.10;;;0.50;;
15482;SDS011;7843;50.330;7.312;2023-06-14T08:50:27;1.30;;;0.88;;
15482;SDS011;7843;50.330;7.312;2023-06-14T08:52:59;2.50;;;0.95;;
15482;SDS011;7843;50.330;7.312;2023-06-14T08:55:28;0.90;;;0.65;;
15482;SDS011;7843;50.330;7.312;2023-06-14T08:57:57;1.10;;;0.60;;
15482;SDS011;7843;50.330;7.312;2023-06-14T09:00:24;0.82;;;0.70;;
15482;SDS011;7843;50.330;7.312;2023-06-14T09:02:53;1.33;;;0.45;;
15482;SDS011;7843;50.330;7.312;2023-06-14T09:05:26;4.00;;;0.70;;
15482;SDS011;7843;50.330;7.312;2023-06-14T09:07:53;3.28;;;0.60;;
15482;SDS011;7843;50.330;7.312;2023-06-14T09:10:21;0.97;;;0.67;;
15482;SDS011;7843;50.330;7.312;2023-06-14T09:12:49;1.60;;;0.70;;
15482;SDS011;7843;50.330;7.312;2023-06-14T09:15:16;0.80;;;0.50;;
15482;SDS011;7843;50.330;7.312;2023-06-14T09:17:43;1.08;;;0.70;;
15482;SDS011;7843;50.330;7.312;2023-06-14T09:20:11;1.10;;;0.50;;
15482;SDS011;7843;50.330;7.312;2023-06-14T09:22:44;0.90;;;0.60;;
15482;SDS011;7843;50.330;7.312;2023-06-14T09:25:12;6.45;;;0.68;;
15482;SDS011;7843;50.330;7.312;2023-06-14T09:27:47;0.52;;;0.52;;
15482;SDS011;7843;50.330;7.312;2023-06-14T09:30:14;0.85;;;0.60;;
15482;SDS011;7843;50.330;7.312;2023-06-14T09:32:41;6.75;;;0.70;;
15482;SDS011;7843;50.330;7.312;2023-06-14T09:35:08;1.27;;;0.60;;
15482;SDS011;7843;50.330;7.312;2023-06-14T09:37:35;0.93;;;0.75;;
15482;SDS011;7843;50.330;7.312;2023-06-14T09:40:04;0.82;;;0.60;;
15482;SDS011;7843;50.330;7.312;2023-06-14T09:42:32;0.68;;;0.47;;
15482;SDS011;7843;50.330;7.312;2023-06-14T09:45:02;0.65;;;0.50;;
15482;SDS011;7843;50.330;7.312;2023-06-14T09:47:30;2.00;;;0.70;;
15482;SDS011;7843;50.330;7.312;2023-06-14T09:49:56;1.40;;;0.50;;
15482;SDS011;7843;50.330;7.312;2023-06-14T09:52:23;0.90;;;0.70;;
15482;SDS011;7843;50.330;7.312;2023-06-14T09:54:52;0.68;;;0.57;;
15482;SDS011;7843;50.330;7.312;2023-06-14T09:57:22;0.98;;;0.70;;
15482;SDS011;7843;50.330;7.312;2023-06-14T09:59:52;1.17;;;0.63;;
15482;SDS011;7843;50.330;7.312;2023-06-14T10:02:24;1.33;;;0.77;;
15482;SDS011;7843;50.330;7.312;2023-06-14T10:04:55;3.60;;;0.60;;
15482;SDS011;7843;50.330;7.312;2023-06-14T10:07:27;0.85;;;0.55;;
15482;SDS011;7843;50.330;7.312;2023-06-14T10:09:57;1.13;;;0.75;;
15482;SDS011;7843;50.330;7.312;2023-06-14T10:12:25;0.70;;;0.70;;
15482;SDS011;7843;50.330;7.312;2023-06-14T10:14:52;1.17;;;0.80;;
15482;SDS011;7843;50.330;7.312;2023-06-14T10:17:33;1.53;;;0.57;;
15482;SDS011;7843;50.330;7.312;2023-06-14T10:22:49;0.98;;;0.70;;
15482;SDS011;7843;50.330;7.312;2023-06-14T10:25:28;0.65;;;0.50;;
15482;SDS011;7843;50.330;7.312;2023-06-14T10:28:02;1.05;;;0.60;;
15482;SDS011;7843;50.330;7.312;2023-06-14T10:31:04;2.70;;;0.70;;
15482;SDS011;7843;50.330;7.312;2023-06-14T10:33:33;0.80;;;0.50;;
15482;SDS011;7843;50.330;7.312;2023-06-14T10:36:11;1.53;;;0.77;;
15482;SDS011;7843;50.330;7.312;2023-06-14T10:39:01;1.02;;;0.65;;
15482;SDS011;7843;50.330;7.312;2023-06-14T10:41:38;1.10;;;0.60;;
15482;SDS011;7843;50.330;7.312;2023-06-14T10:49:18;0.70;;;0.43;;
15482;SDS011;7843;50.330;7.312;2023-06-14T10:51:55;0.82;;;0.50;;
15482;SDS011;7843;50.330;7.312;2023-06-14T10:54:24;4.05;;;0.80;;
15482;SDS011;7843;50.330;7.312;2023-06-14T10:56:53;0.75;;;0.50;;
15482;SDS011;7843;50.330;7.312;2023-06-14T10:59:21;0.60;;;0.30;;
15482;SDS011;7843;50.330;7.312;2023-06-14T11:04:49;1.45;;;0.65;;
15482;SDS011;7843;50.330;7.312;2023-06-14T11:12:50;1.35;;;0.65;;
15482;SDS011;7843;50.330;7.312;2023-06-14T11:15:20;0.57;;;0.50;;
15482;SDS011;7843;50.330;7.312;2023-06-14T11:17:53;0.50;;;0.50;;
15482;SDS011;7843;50.330;7.312;2023-06-14T11:20:26;3.10;;;0.70;;
15482;SDS011;7843;50.330;7.312;2023-06-14T11:22:54;0.90;;;0.52;;
15482;SDS011;7843;50.330;7.312;2023-06-14T11:25:20;0.60;;;0.50;;
15482;SDS011;7843;50.330;7.312;2023-06-14T11:27:49;2.08;;;0.73;;
15482;SDS011;7843;50.330;7.312;2023-06-14T11:30:16;1.63;;;0.40;;
15482;SDS011;7843;50.330;7.312;2023-06-14T11:32:47;1.20;;;0.68;;
15482;SDS011;7843;50.330;7.312;2023-06-14T11:35:14;2.67;;;0.67;;
15482;SDS011;7843;50.330;7.312;2023-06-14T11:37:42;1.67;;;0.70;;
15482;SDS011;7843;50.330;7.312;2023-06-14T11:40:11;0.80;;;0.60;;
15482;SDS011;7843;50.330;7.312;2023-06-14T11:42:39;1.75;;;0.55;;
15482;SDS011;7843;50.330;7.312;2023-06-14T11:45:07;1.48;;;0.45;;
15482;SDS011;7843;50.330;7.312;2023-06-14T11:47:35;0.63;;;0.47;;
15482;SDS011;7843;50.330;7.312;2023-06-14T11:50:03;1.40;;;0.65;;
15482;SDS011;7843;50.330;7.312;2023-06-14T11:52:31;0.68;;;0.57;;
15482;SDS011;7843;50.330;7.312;2023-06-14T11:54:58;0.40;;;0.40;;
15482;SDS011;7843;50.330;7.312;2023-06-14T11:57:26;1.63;;;0.80;;
15482;SDS011;7843;50.330;7.312;2023-06-14T11:59:54;1.67;;;0.67;;
15482;SDS011;7843;50.330;7.312;2023-06-14T12:02:21;1.30;;;0.68;;
15482;SDS011;7843;50.330;7.312;2023-06-14T12:04:50;0.45;;;0.45;;
15482;SDS011;7843;50.330;7.312;2023-06-14T12:07:17;0.30;;;0.30;;
15482;SDS011;7843;50.330;7.312;2023-06-14T12:12:25;0.45;;;0.40;;
15482;SDS011;7843;50.330;7.312;2023-06-14T12:14:52;1.20;;;0.88;;
15482;SDS011;7843;50.330;7.312;2023-06-14T12:17:19;0.93;;;0.60;;
15482;SDS011;7843;50.330;7.312;2023-06-14T12:19:46;0.43;;;0.43;;
15482;SDS011;7843;50.330;7.312;2023-06-14T12:22:14;0.85;;;0.40;;
15482;SDS011;7843;50.330;7.312;2023-06-14T12:24:44;0.93;;;0.65;;
15482;SDS011;7843;50.330;7.312;2023-06-14T12:27:12;4.45;;;0.90;;
15482;SDS011;7843;50.330;7.312;2023-06-14T12:29:42;0.68;;;0.50;;
15482;SDS011;7843;50.330;7.312;2023-06-14T12:32:11;2.38;;;0.60;;
15482;SDS011;7843;50.330;7.312;2023-06-14T12:34:38;1.33;;;0.40;;
15482;SDS011;7843;50.330;7.312;2023-06-14T12:37:05;0.70;;;0.50;;
15482;SDS011;7843;50.330;7.312;2023-06-14T12:39:32;0.82;;;0.57;;
15482;SDS011;7843;50.330;7.312;2023-06-14T12:41:59;0.77;;;0.60;;
15482;SDS011;7843;50.330;7.312;2023-06-14T12:44:26;0.95;;;0.57;;
15482;SDS011;7843;50.330;7.312;2023-06-14T12:46:52;0.45;;;0.40;;
15482;SDS011;7843;50.330;7.312;2023-06-14T12:49:20;0.90;;;0.60;;
15482;SDS011;7843;50.330;7.312;2023-06-14T12:51:47;1.70;;;0.50;;
15482;SDS011;7843;50.330;7.312;2023-06-14T12:54:14;1.08;;;0.40;;
15482;SDS011;7843;50.330;7.312;2023-06-14T12:56:41;0.80;;;0.57;;
15482;SDS011;7843;50.330;7.312;2023-06-14T12:59:09;0.50;;;0.50;;
15482;SDS011;7843;50.330;7.312;2023-06-14T13:01:37;2.42;;;0.52;;
15482;SDS011;7843;50.330;7.312;2023-06-14T13:04:05;0.45;;;0.35;;
15482;SDS011;7843;50.330;7.312;2023-06-14T13:06:32;0.65;;;0.60;;
15482;SDS011;7843;50.330;7.312;2023-06-14T13:08:59;0.75;;;0.70;;
15482;SDS011;7843;50.330;7.312;2023-06-14T13:11:27;0.77;;;0.50;;
15482;SDS011;7843;50.330;7.312;2023-06-14T13:13:53;4.22;;;1.00;;
15482;SDS011;7843;50.330;7.312;2023-06-14T13:16:20;0.70;;;0.57;;
15482;SDS011;7843;50.330;7.312;2023-06-14T13:18:47;1.15;;;0.70;;
15482;SDS011;7843;50.330;7.312;2023-06-14T13:21:13;3.10;;;0.77;;
15482;SDS011;7843;50.330;7.312;2023-06-14T13:23:41;1.08;;;0.60;;
15482;SDS011;7843;50.330;7.312;2023-06-14T13:26:08;0.90;;;0.47;;
15482;SDS011;7843;50.330;7.312;2023-06-14T13:28:34;1.00;;;0.68;;
15482;SDS011;7843;50.330;7.312;2023-06-14T13:31:01;1.80;;;0.60;;
15482;SDS011;7843;50.330;7.312;2023-06-14T13:33:28;0.80;;;0.50;;
15482;SDS011;7843;50.330;7.312;2023-06-14T13:35:55;0.52;;;0.47;;
15482;SDS011;7843;50.330;7.312;2023-06-14T13:38:21;0.80;;;0.50;;
15482;SDS011;7843;50.330;7.312;2023-06-14T13:40:48;1.20;;;0.80;;
15482;SDS011;7843;50.330;7.312;2023-06-14T13:43:15;0.90;;;0.70;;
15482;SDS011;7843;50.330;7.312;2023-06-14T13:45:41;0.45;;;0.45;;
15482;SDS011;7843;50.330;7.312;2023-06-14T13:48:08;1.10;;;0.80;;
15482;SDS011;7843;50.330;7.312;2023-06-14T13:50:35;0.80;;;0.68;;
15482;SDS011;7843;50.330;7.312;2023-06-14T13:53:02;3.28;;;0.80;;
15482;SDS011;7843;50.330;7.312;2023-06-14T13:55:29;2.13;;;0.70;;
15482;SDS011;7843;50.330;7.312;2023-06-14T13:57:56;0.70;;;0.60;;
15482;SDS011;7843;50.330;7.312;2023-06-14T14:00:23;0.88;;;0.60;;
15482;SDS011;7843;50.330;7.312;2023-06-14T14:02:49;1.23;;;0.70;;
15482;SDS011;7843;50.330;7.312;2023-06-14T14:05:16;1.60;;;0.60;;
15482;SDS011;7843;50.330;7.312;2023-06-14T14:07:43;0.50;;;0.50;;
15482;SDS011;7843;50.330;7.312;2023-06-14T14:10:10;0.57;;;0.50;;
15482;SDS011;7843;50.330;7.312;2023-06-14T14:12:39;3.10;;;0.55;;
15482;SDS011;7843;50.330;7.312;2023-06-14T14:15:06;0.63;;;0.60;;
15482;SDS011;7843;50.330;7.312;2023-06-14T14:17:38;1.70;;;0.60;;
15482;SDS011;7843;50.330;7.312;2023-06-14T14:20:06;1.33;;;0.70;;
15482;SDS011;7843;50.330;7.312;2023-06-14T14:22:33;0.60;;;0.60;;
15482;SDS011;7843;50.330;7.312;2023-06-14T14:25:00;2.53;;;0.80;;
15482;SDS011;7843;50.330;7.312;2023-06-14T14:27:27;2.65;;;0.80;;
15482;SDS011;7843;50.330;7.312;2023-06-14T14:29:53;2.22;;;0.60;;
15482;SDS011;7843;50.330;7.312;2023-06-14T14:32:20;0.77;;;0.70;;
15482;SDS011;7843;50.330;7.312;2023-06-14T14:34:47;1.50;;;0.68;;
15482;SDS011;7843;50.330;7.312;2023-06-14T14:37:13;1.50;;;0.90;;
15482;SDS011;7843;50.330;7.312;2023-06-14T14:39:41;1.10;;;0.57;;
15482;SDS011;7843;50.330;7.312;2023-06-14T14:42:07;1.20;;;0.40;;
15482;SDS011;7843;50.330;7.312;2023-06-14T14:44:34;0.80;;;0.60;;
15482;SDS011;7843;50.330;7.312;2023-06-14T14:47:01;2.10;;;0.50;;
15482;SDS011;7843;50.330;7.312;2023-06-14T14:49:31;1.10;;;0.65;;
15482;SDS011;7843;50.330;7.312;2023-06-14T14:51:58;0.40;;;0.40;;
15482;SDS011;7843;50.330;7.312;2023-06-14T14:54:28;0.93;;;0.70;;
15482;SDS011;7843;50.330;7.312;2023-06-14T14:56:55;2.65;;;0.80;;
15482;SDS011;7843;50.330;7.312;2023-06-14T14:59:22;0.60;;;0.60;;
15482;SDS011;7843;50.330;7.312;2023-06-14T15:01:49;0.45;;;0.40;;
15482;SDS011;7843;50.330;7.312;2023-06-14T15:04:16;0.70;;;0.70;;
15482;SDS011;7843;50.330;7.312;2023-06-14T15:06:43;3.65;;;0.60;;
15482;SDS011;7843;50.330;7.312;2023-06-14T15:09:10;0.60;;;0.50;;
15482;SDS011;7843;50.330;7.312;2023-06-14T15:11:37;0.70;;;0.50;;
15482;SDS011;7843;50.330;7.312;2023-06-14T15:14:03;3.00;;;0.80;;
15482;SDS011;7843;50.330;7.312;2023-06-14T15:16:30;0.82;;;0.68;;
15482;SDS011;7843;50.330;7.312;2023-06-14T15:18:57;2.20;;;0.70;;
15482;SDS011;7843;50.330;7.312;2023-06-14T15:21:24;0.47;;;0.45;;
15482;SDS011;7843;50.330;7.312;2023-06-14T15:23:50;0.63;;;0.50;;
15482;SDS011;7843;50.330;7.312;2023-06-14T15:26:19;0.70;;;0.70;;
15482;SDS011;7843;50.330;7.312;2023-06-14T15:28:46;1.30;;;0.60;;